createdAt,value
2023-10-29T00:00:18.703Z,1.48
2023-10-29T00:02:45.793Z,3.90
2023-10-29T00:05:12.700Z,1.33
2023-10-29T00:07:40.256Z,1.23
2023-10-29T00:10:08.239Z,0.75
2023-10-29T00:12:35.132Z,1.00
2023-10-29T00:15:02.509Z,1.85
2023-10-29T00:17:29.437Z,3.03
2023-10-29T00:19:56.285Z,1.30
2023-10-29T00:22:23.038Z,0.50
2023-10-29T00:24:50.373Z,2.33
2023-10-29T00:27:17.145Z,0.52
2023-10-29T00:29:43.981Z,0.80
2023-10-29T00:32:10.857Z,1.77
2023-10-29T00:34:37.688Z,1.58
2023-10-29T00:37:04.695Z,1.67
2023-10-29T00:39:31.841Z,1.75
2023-10-29T00:41:58.715Z,1.60
2023-10-29T00:44:26.377Z,1.77
2023-10-29T00:46:53.294Z,1.17
2023-10-29T00:49:20.091Z,1.17
2023-10-29T00:51:47.379Z,1.55
2023-10-29T00:54:14.237Z,1.80
2023-10-29T00:56:41.266Z,1.80
2023-10-29T00:59:09.000Z,2.55
2023-10-29T01:01:35.795Z,2.22
2023-10-29T01:04:02.667Z,4.07
2023-10-29T01:06:29.663Z,1.35
2023-10-29T01:08:56.796Z,1.15
2023-10-29T01:11:23.791Z,0.93
2023-10-29T01:13:51.034Z,1.73
2023-10-29T01:16:17.900Z,1.98
2023-10-29T01:18:44.681Z,2.47
2023-10-29T01:21:11.575Z,1.77
2023-10-29T01:23:38.724Z,3.05
2023-10-29T01:26:05.507Z,1.58
2023-10-29T01:28:32.794Z,1.20
2023-10-29T01:31:01.030Z,3.25
2023-10-29T01:33:28.013Z,0.88
2023-10-29T01:35:54.989Z,2.78
2023-10-29T01:38:21.810Z,1.95
2023-10-29T01:40:49.375Z,3.15
2023-10-29T01:43:17.120Z,1.92
2023-10-29T01:45:44.380Z,3.70
2023-10-29T01:48:11.245Z,1.42
2023-10-29T01:50:38.258Z,1.50
2023-10-29T01:53:05.158Z,3.70
2023-10-29T01:55:36.840Z,1.52
2023-10-29T01:58:04.164Z,2.60
2023-10-29T02:00:31.150Z,2.67
2023-10-29T02:02:58.126Z,2.90
2023-10-29T02:05:24.997Z,2.25
2023-10-29T02:07:51.808Z,1.70
2023-10-29T02:10:18.586Z,1.73
2023-10-29T02:12:45.393Z,2.92
2023-10-29T02:15:12.179Z,2.28
2023-10-29T02:17:39.098Z,1.38
2023-10-29T02:20:07.878Z,2.85
2023-10-29T02:22:34.701Z,1.67
2023-10-29T02:25:01.494Z,1.92
2023-10-29T02:27:28.289Z,4.03
2023-10-29T02:29:55.465Z,1.38
2023-10-29T02:32:23.555Z,1.90
2023-10-29T02:34:50.384Z,1.13
2023-10-29T02:37:17.202Z,2.05
2023-10-29T02:39:44.374Z,2.40
2023-10-29T02:42:15.603Z,3.83
2023-10-29T02:44:42.436Z,2.03
2023-10-29T02:47:09.200Z,1.85
2023-10-29T02:49:35.969Z,1.73
2023-10-29T02:52:02.961Z,1.42
2023-10-29T02:54:29.912Z,1.30
2023-10-29T02:56:56.695Z,0.85
2023-10-29T02:59:23.480Z,1.20
2023-10-29T03:01:50.254Z,4.68
2023-10-29T03:04:17.246Z,2.83
2023-10-29T03:06:44.301Z,1.13
2023-10-29T03:09:11.101Z,1.05
2023-10-29T03:11:37.894Z,2.13
2023-10-29T03:14:04.723Z,2.90
2023-10-29T03:16:31.583Z,1.75
2023-10-29T03:18:58.395Z,0.55
2023-10-29T03:21:25.204Z,1.13
2023-10-29T03:23:52.010Z,0.68
2023-10-29T03:26:18.809Z,0.82
2023-10-29T03:28:45.555Z,2.10
2023-10-29T03:31:16.788Z,1.40
2023-10-29T03:33:44.084Z,0.47
2023-10-29T03:36:10.934Z,0.90
2023-10-29T03:38:37.779Z,1.73
2023-10-29T03:41:04.677Z,0.40
2023-10-29T03:43:31.590Z,2.03
2023-10-29T03:45:58.398Z,1.15
2023-10-29T03:48:25.308Z,3.63
2023-10-29T03:50:52.265Z,0.85
2023-10-29T03:53:19.150Z,1.00
2023-10-29T03:55:46.110Z,2.15
2023-10-29T03:58:12.891Z,0.50
2023-10-29T04:24:16.645Z,0.55
2023-10-29T04:26:44.387Z,0.95
2023-10-29T04:29:11.224Z,2.28
2023-10-29T04:31:37.979Z,1.23
2023-10-29T04:34:04.878Z,2.72
2023-10-29T04:36:31.721Z,2.30
2023-10-29T04:38:58.527Z,1.45
2023-10-29T04:41:25.326Z,3.65
2023-10-29T04:43:52.077Z,4.75
2023-10-29T04:46:19.666Z,1.05
2023-10-29T04:48:46.466Z,3.92
2023-10-29T04:51:13.256Z,3.75
2023-10-29T04:53:40.043Z,2.17
2023-10-29T04:56:07.147Z,2.13
2023-10-29T04:58:33.964Z,1.70
2023-10-29T05:01:01.167Z,1.55
2023-10-29T05:03:29.109Z,1.52
2023-10-29T05:05:56.671Z,1.20
2023-10-29T05:08:23.616Z,1.88
2023-10-29T05:10:50.493Z,2.15
2023-10-29T05:13:17.696Z,1.48
2023-10-29T05:15:44.577Z,2.90
2023-10-29T05:18:11.569Z,2.60
2023-10-29T05:20:39.257Z,1.30
2023-10-29T05:23:06.363Z,4.03
2023-10-29T05:25:33.166Z,2.17
2023-10-29T05:28:00.143Z,2.83
2023-10-29T05:30:26.970Z,4.22
2023-10-29T05:32:54.022Z,3.55
2023-10-29T05:35:22.212Z,3.00
2023-10-29T05:37:49.019Z,1.45
2023-10-29T05:40:16.091Z,1.83
2023-10-29T05:42:42.906Z,2.47
2023-10-29T05:45:10.422Z,2.17
2023-10-29T05:47:37.409Z,2.38
2023-10-29T05:50:05.349Z,2.80
2023-10-29T05:52:33.012Z,3.70
2023-10-29T05:55:04.597Z,9.63
2023-10-29T05:57:31.408Z,3.90
2023-10-29T05:59:58.261Z,2.25
2023-10-29T06:02:25.441Z,2.33
2023-10-29T06:04:52.489Z,2.53
2023-10-29T06:07:19.545Z,4.20
2023-10-29T06:09:46.338Z,1.80
2023-10-29T06:12:13.178Z,1.55
2023-10-29T06:14:40.107Z,4.25
2023-10-29T06:17:19.565Z,3.00
2023-10-29T06:19:53.643Z,4.65
2023-10-29T06:22:20.403Z,4.10
2023-10-29T06:24:47.455Z,3.22
2023-10-29T06:27:14.397Z,2.13
2023-10-29T06:29:41.940Z,1.90
2023-10-29T06:32:09.479Z,3.72
2023-10-29T06:34:36.234Z,2.70
2023-10-29T06:37:03.068Z,4.22
2023-10-29T06:39:29.817Z,1.67
2023-10-29T06:41:56.607Z,1.95
2023-10-29T06:44:23.409Z,2.22
2023-10-29T06:46:50.323Z,3.05
2023-10-29T06:49:17.065Z,1.30
2023-10-29T06:51:43.919Z,2.05
2023-10-29T06:54:10.665Z,2.35
2023-10-29T06:56:37.422Z,4.53
2023-10-29T06:59:04.222Z,3.45
2023-10-29T07:01:31.001Z,3.28
2023-10-29T07:03:58.315Z,4.95
2023-10-29T07:06:25.181Z,2.42
2023-10-29T07:08:51.957Z,1.77
2023-10-29T07:11:20.275Z,2.83
2023-10-29T07:13:47.113Z,2.25
2023-10-29T07:16:17.791Z,2.95
2023-10-29T07:18:44.733Z,4.13
2023-10-29T07:21:11.604Z,3.83
2023-10-29T07:23:38.472Z,2.15
2023-10-29T07:26:05.246Z,2.17
2023-10-29T07:28:32.139Z,2.28
2023-10-29T07:30:58.944Z,1.55
2023-10-29T07:33:25.815Z,1.75
2023-10-29T07:35:52.658Z,2.78
2023-10-29T07:38:19.517Z,2.17
2023-10-29T07:40:46.314Z,5.20
2023-10-29T07:43:13.100Z,3.58
2023-10-29T07:45:40.023Z,4.13
2023-10-29T07:48:06.975Z,3.58
2023-10-29T07:50:33.872Z,1.58
2023-10-29T07:53:00.640Z,2.30
2023-10-29T07:55:27.425Z,5.40
2023-10-29T07:57:54.276Z,5.03
2023-10-29T08:00:21.136Z,2.28
2023-10-29T08:02:48.190Z,2.33
2023-10-29T08:05:16.302Z,3.13
2023-10-29T08:07:43.089Z,3.40
2023-10-29T08:10:10.876Z,2.38
2023-10-29T08:12:37.758Z,1.27
2023-10-29T08:15:05.126Z,5.82
2023-10-29T08:17:32.084Z,2.80
2023-10-29T08:20:01.496Z,2.33
2023-10-29T08:22:28.283Z,4.82
2023-10-29T08:24:56.698Z,4.95
2023-10-29T08:27:24.622Z,4.20
2023-10-29T08:29:51.466Z,2.75
2023-10-29T08:32:18.753Z,3.92
2023-10-29T08:34:46.022Z,7.40
2023-10-29T08:37:13.184Z,1.83
2023-10-29T08:39:40.219Z,3.42
2023-10-29T08:42:07.232Z,4.57
2023-10-29T08:44:34.096Z,3.92
2023-10-29T08:47:00.916Z,6.15
2023-10-29T08:49:27.749Z,4.25
2023-10-29T08:51:54.572Z,1.40
2023-10-29T08:54:21.373Z,4.00
2023-10-29T08:56:50.320Z,4.15
2023-10-29T08:59:17.217Z,3.22
2023-10-29T09:01:44.773Z,5.45
2023-10-29T09:04:12.077Z,4.30
2023-10-29T09:06:39.216Z,2.28
2023-10-29T09:09:06.433Z,2.15
2023-10-29T09:11:33.319Z,7.43
2023-10-29T09:14:02.157Z,4.47
2023-10-29T09:16:29.000Z,5.43
2023-10-29T09:18:55.786Z,4.38
2023-10-29T09:21:22.929Z,3.70
2023-10-29T09:23:49.777Z,7.93
2023-10-29T09:26:18.049Z,3.75
2023-10-29T09:28:45.166Z,3.75
2023-10-29T09:31:18.770Z,2.35
2023-10-29T09:33:46.172Z,4.85
2023-10-29T09:36:14.509Z,2.35
2023-10-29T09:38:42.430Z,2.03
2023-10-29T09:41:09.550Z,2.20
2023-10-29T09:43:42.549Z,3.25
2023-10-29T09:46:12.252Z,3.38
2023-10-29T09:48:40.835Z,4.18
2023-10-29T09:51:07.981Z,3.70
2023-10-29T09:53:39.238Z,5.82
2023-10-29T09:56:10.619Z,1.20
2023-10-29T09:58:37.958Z,3.42
2023-10-29T10:01:06.657Z,3.17
2023-10-29T10:03:33.643Z,4.32
2023-10-29T10:06:01.488Z,8.90
2023-10-29T10:08:29.602Z,3.28
2023-10-29T10:11:00.809Z,5.35
2023-10-29T10:13:39.983Z,2.53
2023-10-29T10:16:17.166Z,6.30
2023-10-29T10:18:55.957Z,1.42
2023-10-29T10:21:40.371Z,2.08
2023-10-29T10:24:08.307Z,3.10
2023-10-29T10:26:40.231Z,5.03
2023-10-29T10:29:09.324Z,1.90
2023-10-29T10:31:37.010Z,3.20
2023-10-29T10:34:24.191Z,2.35
2023-10-29T10:36:50.939Z,3.80
2023-10-29T10:39:24.214Z,1.60
2023-10-29T10:41:51.184Z,2.70
2023-10-29T10:44:20.378Z,2.53
2023-10-29T10:46:54.742Z,5.60
2023-10-29T10:49:25.301Z,5.43
2023-10-29T10:51:57.119Z,5.93
2023-10-29T10:56:53.767Z,2.83
2023-10-29T10:59:21.811Z,3.78
2023-10-29T11:01:49.988Z,2.92
2023-10-29T11:04:18.378Z,3.83
2023-10-29T11:06:46.349Z,8.35
2023-10-29T11:09:14.646Z,3.08
2023-10-29T11:11:52.388Z,3.22
2023-10-29T11:14:20.904Z,4.00
2023-10-29T11:16:55.696Z,3.90
2023-10-29T11:19:45.504Z,2.28
2023-10-29T11:22:30.418Z,3.20
2023-10-29T11:25:06.762Z,7.03
2023-10-29T11:27:44.485Z,14.48
2023-10-29T11:30:19.317Z,5.28
2023-10-29T11:33:08.678Z,7.40
2023-10-29T11:35:35.938Z,2.45
2023-10-29T11:38:34.360Z,2.88
2023-10-29T11:41:47.337Z,3.33
2023-10-29T11:44:23.218Z,2.92
2023-10-29T11:46:59.196Z,2.50
2023-10-29T11:49:27.504Z,3.15
2023-10-29T11:52:02.756Z,4.05
2023-10-29T11:54:33.675Z,2.78
2023-10-29T11:57:01.061Z,4.68
2023-10-29T11:59:27.969Z,3.90
2023-10-29T12:01:55.337Z,3.15
2023-10-29T12:04:22.327Z,2.10
2023-10-29T12:06:52.436Z,2.58
2023-10-29T12:09:25.816Z,3.45
2023-10-29T12:11:55.833Z,3.35
2023-10-29T12:14:44.949Z,3.65
2023-10-29T12:17:12.218Z,3.00
2023-10-29T12:19:42.787Z,2.42
2023-10-29T12:22:22.428Z,2.13
2023-10-29T12:25:01.427Z,1.83
2023-10-29T12:27:31.137Z,3.45
2023-10-29T12:29:58.040Z,4.45
2023-10-29T12:32:27.663Z,1.23
2023-10-29T12:34:57.905Z,2.55
2023-10-29T12:37:30.817Z,1.83
2023-10-29T12:40:01.016Z,2.30
2023-10-29T12:42:53.198Z,2.80
2023-10-29T12:45:33.850Z,2.95
2023-10-29T12:48:15.700Z,1.90
2023-10-29T12:50:52.071Z,4.75
2023-10-29T12:53:29.758Z,1.77
2023-10-29T12:56:00.284Z,2.47
2023-10-29T12:58:29.496Z,1.15
2023-10-29T13:00:58.597Z,1.77
2023-10-29T13:03:28.495Z,1.00
2023-10-29T13:05:56.068Z,3.75
2023-10-29T13:08:27.809Z,1.92
2023-10-29T13:10:54.679Z,1.13
2023-10-29T13:13:24.507Z,0.90
2023-10-29T13:15:51.873Z,2.22
2023-10-29T13:18:20.089Z,3.72
2023-10-29T13:20:47.156Z,2.65
2023-10-29T13:23:14.520Z,1.45
2023-10-29T13:25:41.707Z,2.22
2023-10-29T13:28:08.908Z,3.38
2023-10-29T13:30:36.938Z,1.80
2023-10-29T13:33:03.843Z,2.42
2023-10-29T13:35:31.644Z,2.95
2023-10-29T13:37:58.436Z,2.92
2023-10-29T13:40:26.706Z,1.92
2023-10-29T13:42:53.492Z,2.55
2023-10-29T13:45:20.337Z,1.27
2023-10-29T13:47:47.180Z,2.92
2023-10-29T13:50:14.125Z,1.33
2023-10-29T13:52:41.862Z,1.45
2023-10-29T13:55:08.826Z,1.25
2023-10-29T13:57:36.001Z,1.20
2023-10-29T14:00:03.637Z,0.90
2023-10-29T14:02:30.526Z,1.75
2023-10-29T14:04:57.951Z,0.85
2023-10-29T14:07:24.831Z,0.50
2023-10-29T14:09:51.615Z,0.93
2023-10-29T14:12:18.499Z,0.55
2023-10-29T14:14:45.362Z,0.88
2023-10-29T14:17:12.370Z,1.70
2023-10-29T14:19:39.137Z,0.77
2023-10-29T14:22:05.976Z,1.02
2023-10-29T14:24:32.925Z,0.35
2023-10-29T14:27:00.006Z,1.27
2023-10-29T14:29:27.197Z,0.25
2023-10-29T14:31:55.070Z,0.73
2023-10-29T14:34:22.297Z,0.20
2023-10-29T14:36:49.128Z,1.10
2023-10-29T14:39:16.575Z,0.35
2023-10-29T14:41:43.415Z,0.65
2023-10-29T14:44:10.736Z,0.75
2023-10-29T14:46:38.355Z,0.30
2023-10-29T14:49:05.314Z,0.73
2023-10-29T14:51:32.079Z,0.30
2023-10-29T14:53:59.799Z,1.25
2023-10-29T14:56:26.641Z,0.88
2023-10-29T14:58:53.975Z,0.63
2023-10-29T15:01:22.763Z,2.47
2023-10-29T15:03:51.301Z,1.52
2023-10-29T15:06:19.604Z,2.05
2023-10-29T15:08:46.588Z,1.30
2023-10-29T15:11:19.746Z,0.60
2023-10-29T15:13:53.319Z,1.23
2023-10-29T15:16:20.140Z,1.00
2023-10-29T15:18:47.942Z,1.02
2023-10-29T15:21:17.065Z,0.73
2023-10-29T15:23:43.919Z,2.35
2023-10-29T15:26:17.514Z,2.15
2023-10-29T15:28:45.191Z,0.65
2023-10-29T15:31:12.510Z,1.25
2023-10-29T15:33:39.972Z,0.93
2023-10-29T15:36:09.541Z,1.58
2023-10-29T15:38:37.321Z,0.75
2023-10-29T15:41:05.516Z,1.90
2023-10-29T15:43:34.643Z,1.00
2023-10-29T15:46:01.892Z,1.30
2023-10-29T15:48:28.778Z,2.33
2023-10-29T15:50:55.928Z,0.60
2023-10-29T15:53:23.757Z,1.38
2023-10-29T15:55:50.961Z,1.58
2023-10-29T15:58:20.341Z,1.08
2023-10-29T16:00:47.610Z,1.77
2023-10-29T16:03:14.688Z,0.98
2023-10-29T16:05:41.532Z,0.88
2023-10-29T16:08:08.337Z,0.40
2023-10-29T16:10:37.042Z,0.60
2023-10-29T16:13:08.060Z,0.20
2023-10-29T16:15:34.829Z,2.33
2023-10-29T16:18:03.300Z,0.30
2023-10-29T16:20:30.237Z,1.35
2023-10-29T16:22:56.983Z,1.67
2023-10-29T16:25:23.983Z,1.25
2023-10-29T16:27:50.787Z,0.68
2023-10-29T16:30:19.003Z,1.25
2023-10-29T16:32:46.171Z,1.55
2023-10-29T16:35:13.846Z,0.85
2023-10-29T16:37:40.898Z,0.95
2023-10-29T16:40:08.629Z,1.88
2023-10-29T16:42:35.958Z,1.55
2023-10-29T16:45:02.937Z,2.42
2023-10-29T16:47:29.971Z,1.33
2023-10-29T16:49:56.968Z,0.52
2023-10-29T16:52:23.712Z,2.15
2023-10-29T16:54:50.869Z,0.60
2023-10-29T16:57:17.745Z,4.10
2023-10-29T16:59:44.594Z,2.30
2023-10-29T17:02:11.546Z,0.50
2023-10-29T17:07:11.310Z,2.20
2023-10-29T17:09:40.241Z,1.95
2023-10-29T17:12:08.004Z,1.77
2023-10-29T17:14:34.892Z,6.82
2023-10-29T17:17:01.645Z,1.20
2023-10-29T17:19:28.406Z,0.82
2023-10-29T17:21:55.899Z,0.85
2023-10-29T17:24:26.938Z,1.95
2023-10-29T17:26:54.959Z,1.80
2023-10-29T17:29:23.063Z,1.15
2023-10-29T17:31:51.110Z,2.17
2023-10-29T17:34:18.357Z,1.88
2023-10-29T17:36:45.936Z,1.30
2023-10-29T17:39:16.022Z,1.77
2023-10-29T17:41:42.977Z,2.58
2023-10-29T17:44:10.207Z,1.17
2023-10-29T17:46:36.973Z,2.05
2023-10-29T17:49:04.699Z,2.17
2023-10-29T17:51:31.631Z,1.80
2023-10-29T17:53:58.551Z,1.15
2023-10-29T17:56:25.601Z,2.40
2023-10-29T17:58:53.495Z,1.60
2023-10-29T18:01:22.399Z,3.45
2023-10-29T18:03:54.631Z,3.35
2023-10-29T18:06:23.879Z,2.65
2023-10-29T18:08:51.106Z,2.80
2023-10-29T18:11:22.228Z,1.90
2023-10-29T18:13:49.072Z,2.07
2023-10-29T18:16:17.235Z,3.17
2023-10-29T18:18:44.328Z,7.55
2023-10-29T18:21:11.175Z,2.35
2023-10-29T18:23:38.216Z,2.92
2023-10-29T18:26:05.231Z,1.33
2023-10-29T18:28:32.151Z,2.35
2023-10-29T18:31:04.060Z,1.73
2023-10-29T18:36:10.390Z,4.70
2023-10-29T18:38:38.413Z,4.57
2023-10-29T18:41:19.700Z,2.78
2023-10-29T18:43:47.488Z,2.88
2023-10-29T18:46:15.922Z,2.83
2023-10-29T18:48:42.900Z,1.80
2023-10-29T18:51:10.047Z,2.70
2023-10-29T18:53:36.893Z,7.03
2023-10-29T18:56:05.504Z,6.88
2023-10-29T18:58:32.652Z,4.03
2023-10-29T19:01:12.235Z,5.00
2023-10-29T19:03:41.075Z,3.03
2023-10-29T19:06:10.316Z,7.65
2023-10-29T19:08:38.068Z,5.00
2023-10-29T19:11:10.050Z,2.42
2023-10-29T19:16:06.259Z,3.63
2023-10-29T19:18:34.818Z,5.78
2023-10-29T19:21:02.207Z,2.67
2023-10-29T19:23:29.145Z,4.32
2023-10-29T19:25:58.066Z,3.88
2023-10-29T19:28:24.964Z,2.97
2023-10-29T19:31:10.518Z,4.90
2023-10-29T19:33:41.761Z,3.20
2023-10-29T19:36:15.747Z,8.23
2023-10-29T19:38:42.847Z,4.05
2023-10-29T19:41:10.204Z,3.53
2023-10-29T19:43:37.267Z,9.13
2023-10-29T19:46:05.094Z,5.03
2023-10-29T19:48:32.143Z,2.63
2023-10-29T19:51:02.530Z,4.05
2023-10-29T19:53:30.942Z,9.23
2023-10-29T19:55:58.702Z,2.55
2023-10-29T19:58:25.849Z,6.18
2023-10-29T20:01:02.636Z,4.28
2023-10-29T20:03:29.672Z,2.90
2023-10-29T20:05:56.817Z,5.95
2023-10-29T20:08:23.711Z,7.07
2023-10-29T20:10:50.593Z,5.70
2023-10-29T20:13:18.137Z,10.25
2023-10-29T20:15:44.889Z,3.58
2023-10-29T20:18:11.718Z,9.00
2023-10-29T20:20:40.784Z,4.97
2023-10-29T20:23:07.541Z,1.88
2023-10-29T20:25:34.759Z,5.00
2023-10-29T20:28:01.606Z,4.15
2023-10-29T20:30:28.548Z,2.90
2023-10-29T20:32:55.457Z,5.03
2023-10-29T20:35:22.349Z,4.28
2023-10-29T20:37:49.140Z,4.10
2023-10-29T20:40:18.067Z,3.97
2023-10-29T20:42:44.817Z,3.67
2023-10-29T20:45:11.723Z,7.10
2023-10-29T20:47:38.493Z,6.63
2023-10-29T20:50:06.248Z,1.85
2023-10-29T20:52:33.654Z,1.95
2023-10-29T20:55:00.557Z,3.13
2023-10-29T20:57:27.552Z,3.88
2023-10-29T20:59:54.394Z,3.33
2023-10-29T21:02:21.183Z,2.80
2023-10-29T21:04:48.093Z,6.40
2023-10-29T21:07:15.907Z,4.97
2023-10-29T21:09:42.680Z,6.75
2023-10-29T21:12:10.227Z,4.22
2023-10-29T21:14:37.233Z,7.00
2023-10-29T21:17:04.315Z,5.45
2023-10-29T21:19:31.433Z,5.45
2023-10-29T21:21:58.750Z,5.88
2023-10-29T21:24:25.544Z,3.42
2023-10-29T21:26:53.112Z,5.70
2023-10-29T21:29:20.017Z,9.65
2023-10-29T21:31:47.521Z,9.48
2023-10-29T21:34:14.271Z,7.90
2023-10-29T21:36:41.060Z,9.38
2023-10-29T21:39:09.106Z,8.38
2023-10-29T21:41:35.957Z,7.22
2023-10-29T21:44:02.784Z,5.15
2023-10-29T21:46:29.628Z,6.47
2023-10-29T21:48:56.839Z,4.97
2023-10-29T21:51:24.585Z,10.63
2023-10-29T21:53:51.645Z,6.20
2023-10-29T21:56:18.457Z,4.30
2023-10-29T21:58:45.420Z,7.32
2023-10-29T22:01:22.569Z,6.68
2023-10-29T22:03:50.561Z,7.43
2023-10-29T22:06:17.639Z,5.10
2023-10-29T22:08:44.612Z,7.18
2023-10-29T22:11:13.195Z,5.75
2023-10-29T22:13:41.158Z,8.18
2023-10-29T22:16:14.054Z,6.75
2023-10-29T22:18:41.102Z,4.28
2023-10-29T22:21:14.050Z,5.15
2023-10-29T22:23:41.421Z,5.47
2023-10-29T22:26:09.360Z,6.93
2023-10-29T22:28:37.798Z,7.07
2023-10-29T22:31:05.234Z,8.27
2023-10-29T22:33:33.590Z,6.90
2023-10-29T22:36:06.880Z,6.75
2023-10-29T22:38:33.835Z,5.72
2023-10-29T22:41:09.562Z,7.70
2023-10-29T22:43:37.046Z,9.02
2023-10-29T22:46:04.402Z,10.07
2023-10-29T22:48:31.316Z,5.20
2023-10-29T22:51:02.635Z,8.95
2023-10-29T22:53:29.473Z,9.00
2023-10-29T22:56:01.136Z,7.72
2023-10-29T22:58:28.671Z,6.03
2023-10-29T23:00:55.787Z,9.43
2023-10-29T23:03:22.805Z,7.13
2023-10-29T23:05:50.003Z,6.60
2023-10-29T23:08:17.066Z,3.88
2023-10-29T23:10:43.876Z,5.95
2023-10-29T23:13:10.658Z,5.13
2023-10-29T23:15:38.469Z,7.28
2023-10-29T23:18:05.867Z,8.00
2023-10-29T23:20:32.720Z,8.73
2023-10-29T23:22:59.674Z,6.10
2023-10-29T23:25:26.502Z,7.10
2023-10-29T23:27:53.436Z,8.75
2023-10-29T23:30:20.223Z,9.13
2023-10-29T23:32:47.088Z,7.07
2023-10-29T23:35:13.861Z,7.85
2023-10-29T23:37:40.691Z,9.70
2023-10-29T23:40:08.197Z,4.82
2023-10-29T23:42:35.092Z,12.73
2023-10-29T23:45:02.562Z,5.07
2023-10-29T23:47:29.541Z,4.90
2023-10-29T23:49:56.363Z,3.22
2023-10-29T23:52:23.143Z,7.50
2023-10-29T23:54:49.993Z,5.43
2023-10-29T23:57:16.827Z,7.88
2023-10-29T23:59:43.807Z,7.20
